Robert G. Stone, Jr. — WDD4596 — position and weather

sailwx.info

Track history (hours):
 
Tides and Currents Weather Stations Pressure Air Temp Water Temp Dewpoint Dewpoint Depression Visibility Wind Speed Wind Dir Waves Ship Positions

Robert G. Stone, Jr.

Owner: Kirby Inland Marine, LP, Houston, TX. More information available from US FCC via Universal Licensing System and Coast Guard Vessel Documentation Center.

Last reported at 2016-Sep-06 12:06 UTC. Time now 2016-Sep-30 23:55 UTC.
Position N 31°60' W 091°05'.
Warning: this ship's position is 24 days out of date.

Length 27 m; draft 3 m.

Type: . MMSI: 367146780.

Date/timePositionNaut miles runAvg speedWind from/ knotsBaromVisibWave heightAir tempDewpointWater temp
2016-Sep-06 12:06N 31°60' W 091°05'6 9.0
2016-Sep-06 11:25N 32°06' W 091°06'6 7.1
2016-Sep-06 10:33N 32°10' W 091°00'1010.2
2016-Sep-06 09:33N 32°19' W 090°54'8 7.7
2016-Sep-06 08:33N 32°25' W 090°60'9 8.7
2016-Sep-06 07:32N 32°32' W 091°06'  
2016-Sep-03 12:06N 32°40' W 091°07'3 5.0
2016-Sep-03 11:28N 32°38' W 091°09'5 5.9
2016-Sep-03 10:33N 32°33' W 091°06'6 5.7
2016-Sep-03 09:34N 32°27' W 091°05'6 5.7
2016-Sep-03 08:33N 32°24' W 090°59'4 4.1
2016-Sep-03 07:33N 32°21' W 090°57'4 3.6
2016-Sep-03 06:34N 32°17' W 090°56'6 5.7
2016-Sep-03 05:33N 32°12' W 090°59'5 5.4
2016-Sep-03 04:34N 32°07' W 091°02'4 3.6
2016-Sep-03 03:34N 32°06' W 091°06'5 4.9
2016-Sep-03 02:34N 32°01' W 091°04'141 3.2
2016-Sep-01 06:33N 29°43' W 091°32'  
Track history (hours):
 
Tides and Currents Weather Stations Pressure Air Temp Water Temp Dewpoint Dewpoint Depression Visibility Wind Speed Wind Dir Waves Ship Positions

Robert G. Stone, Jr.

Owner: Kirby Inland Marine, LP, Houston, TX. More information available from US FCC via Universal Licensing System and Coast Guard Vessel Documentation Center.

Last reported at 2016-Sep-06 12:06 UTC. Time now 2016-Sep-30 23:55 UTC.
Position N 31°60' W 091°05'.
Warning: this ship's position is 24 days out of date.

Length 27 m; draft 3 m.

Type: . MMSI: 367146780.

Date/timePositionNaut miles runAvg speedWind from/ knotsBaromVisibWave heightAir tempDewpointWater temp
2016-Sep-06 12:06N 31°60' W 091°05'6 9.0
2016-Sep-06 11:25N 32°06' W 091°06'6 7.1
2016-Sep-06 10:33N 32°10' W 091°00'1010.2
2016-Sep-06 09:33N 32°19' W 090°54'8 7.7
2016-Sep-06 08:33N 32°25' W 090°60'9 8.7
2016-Sep-06 07:32N 32°32' W 091°06'  
2016-Sep-03 12:06N 32°40' W 091°07'3 5.0
2016-Sep-03 11:28N 32°38' W 091°09'5 5.9
2016-Sep-03 10:33N 32°33' W 091°06'6 5.7
2016-Sep-03 09:34N 32°27' W 091°05'6 5.7
2016-Sep-03 08:33N 32°24' W 090°59'4 4.1
2016-Sep-03 07:33N 32°21' W 090°57'4 3.6
2016-Sep-03 06:34N 32°17' W 090°56'6 5.7
2016-Sep-03 05:33N 32°12' W 090°59'5 5.4
2016-Sep-03 04:34N 32°07' W 091°02'4 3.6
2016-Sep-03 03:34N 32°06' W 091°06'5 4.9
2016-Sep-03 02:34N 32°01' W 091°04'141 3.2
2016-Sep-01 06:33N 29°43' W 091°32'  

Dump ship's entire track history